Time;durP1;ratioP1;P1;durP2;ratioP2;P2;SDS_P1;SDS_P2;PMS_P1;PMS_P2;Temp;Humidity;BMP_temperature;BMP_pressure;BME280_temperature;BME280_humidity;BME280_pressure;Samples;Min_cycle;Max_cycle;Signal;HPM_P1;HPM_P2
2022/04/19 00:01:06;;;;;;;5.13;3.33;;;9.60;99.90;;;;;;5006675;28;20505;-61
2022/04/19 00:03:31;;;;;;;4.75;2.05;;;9.60;99.90;;;;;;5006301;28;20041;-62
2022/04/19 00:05:57;;;;;;;6.78;2.30;;;9.70;99.90;;;;;;5007348;28;20030;-62
2022/04/19 00:08:23;;;;;;;7.28;2.70;;;9.70;99.90;;;;;;5009168;28;20029;-62
2022/04/19 00:10:48;;;;;;;7.47;1.80;;;9.70;99.90;;;;;;5009392;28;20499;-62
2022/04/19 00:13:18;;;;;;;3.70;1.95;;;9.80;99.90;;;;;;5009399;28;20044;-62
2022/04/19 00:15:44;;;;;;;5.65;2.03;;;9.80;99.90;;;;;;5009244;28;20389;-62
2022/04/19 00:18:11;;;;;;;6.53;2.40;;;9.80;99.90;;;;;;5009290;28;20033;-62
2022/04/19 00:20:39;;;;;;;6.57;2.20;;;9.70;99.90;;;;;;5011739;28;20075;-63
2022/04/19 00:23:12;;;;;;;4.10;2.10;;;9.80;99.90;;;;;;5008021;28;20042;-63
2022/04/19 00:25:39;;;;;;;5.43;2.42;;;9.80;99.90;;;;;;4996239;28;269882;-62
2022/04/19 00:28:05;;;;;;;5.47;1.73;;;9.80;99.90;;;;;;5006466;28;20112;-62
2022/04/19 00:30:31;;;;;;;3.95;1.70;;;9.70;99.90;;;;;;5011236;28;20177;-62
2022/04/19 00:32:57;;;;;;;6.10;2.20;;;9.80;99.90;;;;;;5013985;28;20108;-62
2022/04/19 00:35:24;;;;;;;3.47;1.92;;;9.70;99.90;;;;;;5014251;28;20040;-62
2022/04/19 00:37:49;;;;;;;5.30;1.88;;;9.70;99.90;;;;;;5013559;28;20044;-62
2022/04/19 00:40:15;;;;;;;4.00;1.35;;;9.70;99.90;;;;;;5013692;28;20030;-62
2022/04/19 00:42:41;;;;;;;6.80;1.85;;;9.80;99.90;;;;;;5013608;28;20124;-61
2022/04/19 00:45:08;;;;;;;4.78;1.60;;;9.70;99.90;;;;;;5013650;28;20030;-62
2022/04/19 00:47:34;;;;;;;10.20;2.45;;;9.60;99.90;;;;;;5013760;28;20097;-62
2022/04/19 00:50:03;;;;;;;4.95;2.00;;;9.60;99.90;;;;;;5013653;28;20034;-62
2022/04/19 00:52:34;;;;;;;2.08;1.30;;;9.60;99.90;;;;;;5013456;28;20033;-62
2022/04/19 00:55:01;;;;;;;5.95;1.67;;;9.60;99.90;;;;;;5013486;28;20026;-64
2022/04/19 00:57:27;;;;;;;3.45;1.63;;;9.60;99.90;;;;;;5013460;28;20065;-62
2022/04/19 00:59:55;;;;;;;5.45;1.75;;;9.60;99.90;;;;;;5013542;28;20050;-62
2022/04/19 01:02:21;;;;;;;2.70;1.50;;;9.60;99.90;;;;;;5011780;28;20466;-63
2022/04/19 01:04:49;;;;;;;4.22;1.55;;;9.50;99.90;;;;;;5010378;28;20108;-62
2022/04/19 01:07:19;;;;;;;3.08;1.52;;;9.50;99.90;;;;;;5011355;28;20026;-62
2022/04/19 01:09:48;;;;;;;4.80;2.00;;;9.50;99.90;;;;;;5013051;28;20060;-62
2022/04/19 01:15:06;;;;;;;6.72;2.00;;;9.40;99.90;;;;;;5013382;28;20342;-62
2022/04/19 01:17:39;;;;;;;3.00;1.75;;;9.40;99.90;;;;;;5013664;28;20120;-62
2022/04/19 01:20:06;;;;;;;5.10;1.92;;;9.30;99.90;;;;;;5013802;28;20517;-62
2022/04/19 01:22:38;;;;;;;5.13;2.17;;;9.30;99.90;;;;;;5024409;28;20034;-62
2022/04/19 01:25:05;;;;;;;6.28;2.00;;;9.30;99.90;;;;;;5032938;28;20060;-62
2022/04/19 01:27:31;;;;;;;4.75;1.70;;;9.20;99.90;;;;;;5032418;28;20060;-62
2022/04/19 01:30:02;;;;;;;5.78;1.80;;;9.10;99.90;;;;;;5032447;28;20029;-63
2022/04/19 01:32:28;;;;;;;4.03;1.67;;;9.10;99.90;;;;;;5032672;28;20036;-63
2022/04/19 01:35:10;;;;;;;4.45;1.73;;;9.00;99.90;;;;;;5032596;28;20029;-63
2022/04/19 01:37:41;;;;;;;5.13;1.67;;;9.00;99.90;;;;;;5032552;28;20032;-63
2022/04/19 01:40:16;;;;;;;4.90;1.80;;;8.90;99.90;;;;;;5032533;28;20026;-63
2022/04/19 01:42:53;;;;;;;5.30;1.77;;;8.90;99.90;;;;;;5031971;28;20037;-62
2022/04/19 01:45:23;;;;;;;9.90;2.15;;;8.90;99.90;;;;;;5030944;28;20496;-63
2022/04/19 01:47:50;;;;;;;5.47;1.45;;;8.90;99.90;;;;;;5032865;28;20026;-63
2022/04/19 01:50:18;;;;;;;5.05;1.95;;;8.90;99.90;;;;;;5027022;28;20081;-63
2022/04/19 01:52:45;;;;;;;4.30;1.48;;;8.90;99.90;;;;;;5016041;28;20524;-62
2022/04/19 01:55:13;;;;;;;3.97;1.38;;;9.00;99.90;;;;;;5009239;28;20599;-62
2022/04/19 01:57:47;;;;;;;4.13;3.28;;;9.00;99.90;;;;;;5009566;28;20044;-62
2022/04/19 02:00:14;;;;;;;4.18;1.40;;;9.00;99.90;;;;;;5009384;28;20041;-63
2022/04/19 02:02:40;;;;;;;4.22;1.48;;;8.90;99.90;;;;;;5009333;28;20040;-63
2022/04/19 02:05:06;;;;;;;6.07;1.60;;;8.90;99.90;;;;;;5010982;28;20021;-63
2022/04/19 02:07:33;;;;;;;5.32;1.50;;;8.80;99.90;;;;;;5012501;28;20409;-63
2022/04/19 02:10:02;;;;;;;5.78;1.70;;;8.80;99.90;;;;;;5011929;28;20076;-63
2022/04/19 02:12:28;;;;;;;4.47;1.90;;;8.70;99.90;;;;;;5012207;28;20028;-63
2022/04/19 02:14:54;;;;;;;2.40;1.40;;;8.70;99.90;;;;;;5012039;28;20026;-63
2022/04/19 02:17:20;;;;;;;8.45;2.03;;;8.70;99.90;;;;;;5011995;28;20030;-63
2022/04/19 02:19:47;;;;;;;4.18;2.10;;;8.70;99.90;;;;;;5012211;28;20500;-63
2022/04/19 02:22:13;;;;;;;4.47;1.90;;;8.60;99.90;;;;;;5008399;28;20036;-63
2022/04/19 02:24:39;;;;;;;4.25;1.55;;;8.50;99.90;;;;;;5008579;28;20026;-63
2022/04/19 02:27:05;;;;;;;3.00;1.60;;;8.50;99.90;;;;;;5008610;28;20049;-63
2022/04/19 02:29:34;;;;;;;3.13;1.70;;;8.50;99.90;;;;;;5008590;28;20038;-62
2022/04/19 02:32:00;;;;;;;6.95;2.53;;;8.50;99.90;;;;;;5011779;28;20067;-63
2022/04/19 02:34:25;;;;;;;5.65;1.73;;;8.50;99.90;;;;;;5011964;28;20034;-63
2022/04/19 02:36:53;;;;;;;4.30;1.80;;;8.40;99.90;;;;;;5011630;28;20033;-63
2022/04/19 02:39:19;;;;;;;6.30;1.80;;;8.30;99.90;;;;;;5011814;28;20100;-63
2022/04/19 02:41:45;;;;;;;4.05;1.42;;;8.20;99.90;;;;;;5011591;28;20030;-63
2022/04/19 02:44:10;;;;;;;3.60;1.50;;;8.10;99.90;;;;;;5011429;28;20095;-63
2022/04/19 02:46:37;;;;;;;6.25;1.77;;;8.00;99.90;;;;;;5011359;28;20026;-63
2022/04/19 02:49:04;;;;;;;2.60;1.50;;;7.90;99.90;;;;;;5011330;28;20173;-63
2022/04/19 02:51:34;;;;;;;5.60;1.92;;;7.90;99.90;;;;;;5014892;28;20041;-63
2022/04/19 02:54:00;;;;;;;7.13;1.75;;;7.80;99.90;;;;;;5030248;28;20295;-63
2022/04/19 02:56:26;;;;;;;3.65;1.80;;;7.80;99.90;;;;;;5031239;28;20036;-63
2022/04/19 02:58:52;;;;;;;6.03;2.00;;;7.80;99.90;;;;;;5031091;28;20032;-63
2022/04/19 03:01:18;;;;;;;4.30;1.48;;;7.70;99.90;;;;;;5030920;28;20033;-63
2022/04/19 03:03:44;;;;;;;3.92;1.58;;;7.80;99.90;;;;;;5031075;28;20111;-63
2022/04/19 03:06:10;;;;;;;2.55;1.45;;;7.80;99.90;;;;;;5030899;28;20052;-63
2022/04/19 03:08:35;;;;;;;3.10;1.48;;;7.80;99.90;;;;;;5030604;28;20061;-63
2022/04/19 03:11:02;;;;;;;5.93;1.73;;;7.80;99.90;;;;;;5030709;28;20112;-63
2022/04/19 03:13:28;;;;;;;6.50;1.65;;;7.80;99.90;;;;;;5030830;28;20037;-63
2022/04/19 03:15:54;;;;;;;7.40;1.55;;;7.90;99.90;;;;;;5027434;28;20033;-63
2022/04/19 03:18:20;;;;;;;8.73;1.85;;;7.80;99.90;;;;;;5030553;28;20025;-63
2022/04/19 03:20:46;;;;;;;3.17;1.40;;;7.80;99.90;;;;;;5030733;28;20018;-63
2022/04/19 03:28:48;;;;;;;4.75;1.88;;;7.70;99.90;;;;;;5010912;28;20129;-63
2022/04/19 03:31:14;;;;;;;3.58;1.52;;;7.70;99.90;;;;;;5010621;28;20109;-63
2022/04/19 03:33:40;;;;;;;4.50;1.50;;;7.70;99.90;;;;;;5010909;28;20064;-62
2022/04/19 03:36:08;;;;;;;7.60;2.13;;;7.60;99.90;;;;;;5010705;28;20424;-62
2022/04/19 03:38:35;;;;;;;4.28;1.48;;;7.60;99.90;;;;;;5010666;28;20026;-62
2022/04/19 03:41:01;;;;;;;5.85;1.80;;;7.50;99.90;;;;;;5010591;28;20041;-63
2022/04/19 03:43:27;;;;;;;3.67;1.45;;;7.50;99.90;;;;;;5010566;28;20037;-63
2022/04/19 03:45:53;;;;;;;3.50;1.30;;;7.50;99.90;;;;;;5010424;28;20032;-63
2022/04/19 03:48:19;;;;;;;5.15;2.50;;;7.50;99.90;;;;;;5010460;28;20026;-62
2022/04/19 03:50:45;;;;;;;4.13;1.58;;;7.50;99.90;;;;;;5010326;28;20033;-63
2022/04/19 03:53:11;;;;;;;3.95;1.80;;;7.40;99.90;;;;;;5010293;28;20026;-63
2022/04/19 03:55:36;;;;;;;2.70;1.63;;;7.40;99.90;;;;;;5010343;28;20073;-63
2022/04/19 03:58:03;;;;;;;4.60;2.03;;;7.30;99.90;;;;;;5010185;28;20038;-63
2022/04/19 04:00:29;;;;;;;5.38;1.80;;;7.30;99.90;;;;;;5010339;28;20071;-63
2022/04/19 04:02:55;;;;;;;6.00;1.92;;;7.30;99.90;;;;;;5009985;28;20029;-63
2022/04/19 04:05:24;;;;;;;4.93;1.70;;;7.20;99.90;;;;;;5010158;28;20400;-63
2022/04/19 04:07:50;;;;;;;2.67;1.50;;;7.20;99.90;;;;;;5009988;28;20451;-62
2022/04/19 04:10:16;;;;;;;5.53;2.05;;;7.20;99.90;;;;;;5010172;28;20125;-63
2022/04/19 04:12:42;;;;;;;6.88;1.90;;;7.20;99.90;;;;;;5010296;28;20069;-63
2022/04/19 04:15:07;;;;;;;3.60;1.52;;;7.10;99.90;;;;;;5010217;28;20018;-62
2022/04/19 04:17:33;;;;;;;7.35;1.85;;;7.10;99.90;;;;;;5007396;28;20116;-62
2022/04/19 04:20:00;;;;;;;7.25;2.00;;;7.20;99.90;;;;;;5007698;28;20026;-62
2022/04/19 04:22:26;;;;;;;2.88;1.67;;;7.20;99.90;;;;;;5010801;28;20156;-61
2022/04/19 04:24:52;;;;;;;4.38;1.95;;;7.10;99.90;;;;;;5009797;28;20109;-62
2022/04/19 04:27:17;;;;;;;3.70;2.00;;;7.10;99.90;;;;;;5009644;28;20467;-62
2022/04/19 04:29:43;;;;;;;4.85;2.40;;;7.10;99.90;;;;;;5009950;28;20030;-62
2022/04/19 04:32:09;;;;;;;3.28;1.83;;;7.10;99.90;;;;;;5007593;28;20022;-63
2022/04/19 04:34:34;;;;;;;5.13;1.70;;;7.10;99.90;;;;;;5007077;28;20034;-63
2022/04/19 04:37:00;;;;;;;7.20;1.90;;;7.10;99.90;;;;;;5007210;28;20026;-62
2022/04/19 04:39:25;;;;;;;5.32;1.98;;;7.10;99.90;;;;;;5009786;28;20362;-62
2022/04/19 04:41:51;;;;;;;4.03;1.90;;;7.00;99.90;;;;;;5009889;28;20080;-62
2022/04/19 04:44:17;;;;;;;3.92;1.80;;;7.00;99.90;;;;;;5010251;28;20033;-64
2022/04/19 04:49:37;;;;;;;4.60;1.90;;;7.00;99.90;;;;;;5009947;28;20475;-63
2022/04/19 04:52:04;;;;;;;4.90;1.88;;;7.00;99.90;;;;;;5009694;28;20084;-63
2022/04/19 04:54:30;;;;;;;6.35;2.45;;;7.00;99.90;;;;;;5009686;28;20026;-62
2022/04/19 04:56:56;;;;;;;5.90;1.92;;;7.00;99.90;;;;;;5009842;28;20028;-62
2022/04/19 04:59:21;;;;;;;6.00;2.55;;;7.10;99.90;;;;;;5009624;28;20102;-64
2022/04/19 05:01:47;;;;;;;6.35;2.33;;;7.10;99.90;;;;;;5007354;28;20049;-62
2022/04/19 05:04:13;;;;;;;5.82;2.17;;;7.10;99.90;;;;;;5006997;28;20045;-62
2022/04/19 05:06:40;;;;;;;3.28;1.63;;;7.10;99.90;;;;;;5006483;28;20029;-62
2022/04/19 05:09:05;;;;;;;6.03;2.13;;;7.20;99.90;;;;;;5009460;28;20080;-61
2022/04/19 05:11:31;;;;;;;7.10;2.10;;;7.10;99.90;;;;;;5009675;28;20030;-61
2022/04/19 05:13:57;;;;;;;9.05;2.15;;;7.20;99.90;;;;;;5009429;28;20110;-62
2022/04/19 05:16:23;;;;;;;3.78;1.85;;;7.20;99.90;;;;;;5009063;28;20022;-62
2022/04/19 05:18:48;;;;;;;5.07;1.77;;;7.20;99.90;;;;;;5009859;28;20037;-64
2022/04/19 05:21:14;;;;;;;4.85;1.67;;;7.20;99.90;;;;;;5025691;28;20040;-62
2022/04/19 05:23:40;;;;;;;6.80;1.83;;;7.20;99.90;;;;;;5009674;28;20091;-62
2022/04/19 05:26:05;;;;;;;6.28;2.10;;;7.20;99.90;;;;;;5009849;28;20041;-61
2022/04/19 05:28:31;;;;;;;4.97;1.95;;;7.20;99.90;;;;;;5009789;28;20156;-63
2022/04/19 05:30:57;;;;;;;6.28;1.92;;;7.30;99.90;;;;;;5009861;28;20033;-63
2022/04/19 05:33:23;;;;;;;4.88;2.17;;;7.30;99.90;;;;;;5009730;28;20436;-63
2022/04/19 05:35:48;;;;;;;5.78;1.85;;;7.40;99.90;;;;;;5010165;28;20022;-63
2022/04/19 05:38:14;;;;;;;6.25;2.25;;;7.50;99.90;;;;;;5012313;28;20045;-64
2022/04/19 05:40:40;;;;;;;6.30;2.20;;;7.50;99.90;;;;;;5013052;28;20400;-63
2022/04/19 05:43:06;;;;;;;4.70;1.58;;;7.60;99.90;;;;;;5012700;28;20060;-63
2022/04/19 05:45:32;;;;;;;6.43;2.38;;;7.70;99.90;;;;;;5012676;28;20017;-63
2022/04/19 05:47:58;;;;;;;3.72;1.88;;;7.80;99.90;;;;;;5012547;28;20025;-63
2022/04/19 05:50:24;;;;;;;5.00;2.30;;;7.90;99.90;;;;;;5012508;28;20034;-63
2022/04/19 05:52:49;;;;;;;4.63;1.83;;;8.00;99.90;;;;;;5012279;28;20469;-64
2022/04/19 05:55:15;;;;;;;3.28;1.95;;;8.10;99.90;;;;;;5012490;28;20045;-63
2022/04/19 05:57:41;;;;;;;7.03;2.17;;;8.20;99.90;;;;;;5012430;28;20026;-63
2022/04/19 06:00:07;;;;;;;6.45;2.30;;;8.40;99.90;;;;;;5012527;28;20495;-63
2022/04/19 06:05:17;;;;;;;4.18;2.50;;;8.50;99.90;;;;;;5012239;28;20041;-63
2022/04/19 06:07:45;;;;;;;7.20;2.40;;;8.60;99.90;;;;;;5012285;28;20033;-63
2022/04/19 06:10:10;;;;;;;13.70;2.83;;;8.80;99.90;;;;;;5011864;28;20512;-63
2022/04/19 06:12:36;;;;;;;4.78;1.95;;;8.80;99.90;;;;;;5012475;28;20049;-63
2022/04/19 06:15:02;;;;;;;3.38;2.05;;;9.00;99.90;;;;;;5027063;28;20116;-63
2022/04/19 06:17:32;;;;;;;8.73;2.95;;;9.10;99.90;;;;;;5031914;28;20141;-62
2022/04/19 06:20:00;;;;;;;7.13;3.08;;;9.30;99.90;;;;;;5031687;28;20033;-63
2022/04/19 06:22:25;;;;;;;7.72;1.98;;;9.40;99.90;;;;;;5020586;28;20037;-63
2022/04/19 06:24:51;;;;;;;2.67;1.60;;;9.50;99.90;;;;;;5009096;28;20355;-63
2022/04/19 06:27:17;;;;;;;5.63;1.83;;;9.60;99.90;;;;;;5007861;28;20537;-63
2022/04/19 06:29:42;;;;;;;8.82;2.10;;;9.70;99.90;;;;;;5008265;28;20471;-62
2022/04/19 06:32:08;;;;;;;6.00;2.10;;;9.80;99.90;;;;;;5008933;28;20034;-62
2022/04/19 06:34:34;;;;;;;4.35;1.95;;;9.90;99.90;;;;;;5008060;28;20073;-62
2022/04/19 06:37:01;;;;;;;8.38;1.98;;;9.90;99.90;;;;;;5010383;28;20098;-61
2022/04/19 06:39:27;;;;;;;5.80;2.35;;;10.00;99.90;;;;;;5011154;28;20104;-62
2022/04/19 06:41:54;;;;;;;3.20;1.80;;;10.00;99.90;;;;;;5011459;28;20029;-63
2022/04/19 06:44:21;;;;;;;4.53;2.13;;;10.10;99.90;;;;;;5011670;28;20088;-65
2022/04/19 06:46:47;;;;;;;9.90;2.13;;;10.20;99.90;;;;;;5010956;28;20097;-61
2022/04/19 06:49:14;;;;;;;3.47;2.05;;;10.30;99.90;;;;;;5011371;28;20037;-61
2022/04/19 06:51:39;;;;;;;5.32;2.03;;;10.50;99.90;;;;;;5011507;28;20033;-61
2022/04/19 06:54:06;;;;;;;6.32;1.85;;;10.60;99.90;;;;;;5010919;28;20018;-61
2022/04/19 06:56:32;;;;;;;6.03;2.38;;;10.70;99.90;;;;;;5011317;28;20033;-63
2022/04/19 06:58:58;;;;;;;4.93;2.03;;;10.80;99.90;;;;;;5010816;28;20022;-62
2022/04/19 07:01:24;;;;;;;5.38;2.00;;;10.90;99.90;;;;;;5009550;28;20053;-62
2022/04/19 07:03:49;;;;;;;5.85;2.05;;;11.10;99.90;;;;;;5006186;28;20038;-62
2022/04/19 07:06:15;;;;;;;3.50;1.60;;;11.20;99.90;;;;;;5006786;28;20061;-66
2022/04/19 07:08:41;;;;;;;4.75;1.90;;;11.30;99.90;;;;;;5010766;28;20242;-62
2022/04/19 07:11:07;;;;;;;6.15;2.15;;;11.40;99.90;;;;;;5010934;28;20168;-64
2022/04/19 07:13:32;;;;;;;7.25;2.22;;;11.50;99.90;;;;;;5010774;28;20396;-62
2022/04/19 07:15:58;;;;;;;3.90;2.00;;;11.60;99.90;;;;;;5010622;28;20057;-62
2022/04/19 07:18:24;;;;;;;3.83;1.90;;;11.80;99.90;;;;;;5010819;28;20034;-62
2022/04/19 07:29:12;;;;;;;4.30;2.10;;;12.20;99.90;;;;;;5030279;28;20502;-62
2022/04/19 07:31:42;;;;;;;7.00;2.65;;;12.20;99.70;;;;;;5030277;28;20032;-62
2022/04/19 07:34:08;;;;;;;3.90;2.40;;;12.30;99.90;;;;;;5030492;28;20032;-63
2022/04/19 07:36:39;;;;;;;5.57;1.85;;;12.40;99.90;;;;;;5030001;28;20025;-62
2022/04/19 07:39:09;;;;;;;5.38;2.08;;;12.40;99.30;;;;;;5029842;28;20427;-62
2022/04/19 07:41:35;;;;;;;6.85;2.10;;;12.50;99.40;;;;;;5030075;28;20022;-62
2022/04/19 07:44:19;;;;;;;5.15;2.42;;;12.50;98.90;;;;;;5030102;28;20485;-62
2022/04/19 07:46:45;;;;;;;5.28;2.38;;;12.60;99.90;;;;;;5029807;28;20021;-62
2022/04/19 07:49:10;;;;;;;5.47;2.28;;;12.70;99.00;;;;;;5030255;28;20116;-61
2022/04/19 07:51:36;;;;;;;13.88;4.70;;;12.70;98.40;;;;;;5026010;28;20026;-61
2022/04/19 07:54:03;;;;;;;6.00;2.40;;;12.80;99.70;;;;;;5010095;28;20028;-62
2022/04/19 07:56:28;;;;;;;7.07;2.63;;;12.70;97.60;;;;;;5010482;28;20069;-62
2022/04/19 07:58:54;;;;;;;11.23;2.33;;;12.80;97.40;;;;;;5010484;28;20081;-60
2022/04/19 08:01:20;;;;;;;12.35;2.70;;;12.90;97.70;;;;;;5015784;28;20462;-62
2022/04/19 08:03:45;;;;;;;9.93;2.58;;;13.00;97.80;;;;;;5030020;28;20049;-61
2022/04/19 08:06:11;;;;;;;15.52;3.42;;;13.10;97.40;;;;;;5029865;28;20049;-62
2022/04/19 08:08:37;;;;;;;6.30;2.28;;;13.20;97.20;;;;;;5019103;28;20026;-62
2022/04/19 08:11:06;;;;;;;9.32;2.35;;;13.30;96.20;;;;;;5010106;28;20128;-63
2022/04/19 08:13:31;;;;;;;7.72;3.08;;;13.30;96.50;;;;;;5010166;28;20081;-64
2022/04/19 08:15:57;;;;;;;5.57;2.20;;;13.40;96.20;;;;;;5009884;28;20108;-62
2022/04/19 08:18:23;;;;;;;20.13;4.00;;;13.40;96.50;;;;;;5010152;28;20036;-63
2022/04/19 08:20:50;;;;;;;6.07;2.03;;;13.50;95.90;;;;;;5010456;28;20376;-63
2022/04/19 08:23:16;;;;;;;6.03;2.60;;;13.70;95.20;;;;;;5007977;28;20037;-61
2022/04/19 08:25:45;;;;;;;5.47;2.17;;;13.80;94.50;;;;;;5006682;28;20034;-62
2022/04/19 08:28:10;;;;;;;5.78;2.20;;;13.70;94.20;;;;;;5006862;28;20088;-62
2022/04/19 08:30:36;;;;;;;5.43;2.40;;;13.60;94.40;;;;;;5009478;28;20025;-62
2022/04/19 08:33:02;;;;;;;6.13;2.38;;;13.60;95.10;;;;;;5010037;28;20361;-60
2022/04/19 08:35:28;;;;;;;8.43;3.03;;;13.50;95.40;;;;;;5009819;28;20065;-63
2022/04/19 08:37:54;;;;;;;5.63;2.45;;;13.60;95.80;;;;;;5009869;28;20029;-60
2022/04/19 08:40:20;;;;;;;6.05;2.63;;;13.90;94.80;;;;;;5009896;28;20036;-61
2022/04/19 08:42:46;;;;;;;5.13;2.72;;;14.50;93.50;;;;;;5009740;28;20084;-61
2022/04/19 08:45:15;;;;;;;4.53;2.25;;;14.90;92.20;;;;;;5010010;28;20447;-61
2022/04/19 08:47:46;;;;;;;6.50;2.80;;;15.20;90.30;;;;;;5009885;28;20037;-61
2022/04/19 08:50:20;;;;;;;5.90;2.40;;;15.20;90.30;;;;;;5009881;28;20497;-61
2022/04/19 08:52:47;;;;;;;9.57;2.58;;;15.20;89.70;;;;;;5013057;28;20432;-61
2022/04/19 08:57:58;;;;;;;4.93;2.80;;;15.20;90.30;;;;;;5014198;28;20036;-62
2022/04/19 09:00:25;;;;;;;6.57;2.90;;;15.70;90.10;;;;;;5012383;28;20064;-61
2022/04/19 09:02:58;;;;;;;8.43;3.33;;;16.10;85.70;;;;;;5013425;28;20369;-62
2022/04/19 09:05:29;;;;;;;7.70;3.45;;;16.30;84.60;;;;;;5013611;28;20038;-60
2022/04/19 09:07:57;;;;;;;3.95;3.03;;;16.60;82.10;;;;;;5013142;28;20099;-61
2022/04/19 09:10:34;;;;;;;5.72;3.30;;;16.90;81.60;;;;;;5013625;28;20117;-60
2022/04/19 09:13:05;;;;;;;8.45;3.50;;;17.20;81.60;;;;;;5013167;28;20046;-61
2022/04/19 09:15:39;;;;;;;5.50;3.60;;;17.50;78.00;;;;;;5012941;28;20049;-60
2022/04/19 09:18:12;;;;;;;6.95;3.28;;;18.00;76.00;;;;;;5010194;28;20058;-60
2022/04/19 09:20:38;;;;;;;8.68;3.53;;;18.70;71.90;;;;;;5011167;28;20049;-61
2022/04/19 09:23:08;;;;;;;7.93;3.75;;;19.30;67.50;;;;;;5015792;28;20495;-61
2022/04/19 09:25:35;;;;;;;6.63;4.90;;;19.50;63.80;;;;;;5010247;28;20047;-60
2022/04/19 09:28:03;;;;;;;6.53;3.33;;;19.70;61.50;;;;;;5010782;28;20037;-61
2022/04/19 09:30:37;;;;;;;11.32;4.50;;;19.80;61.50;;;;;;5013131;28;20045;-61
2022/04/19 09:33:21;;;;;;;9.48;3.95;;;19.70;59.90;;;;;;5013392;28;20059;-61
2022/04/19 09:36:03;;;;;;;8.77;3.72;;;19.80;59.20;;;;;;5013125;28;20492;-61
2022/04/19 09:38:46;;;;;;;10.02;3.80;;;19.80;58.80;;;;;;5013034;28;20026;-60
2022/04/19 09:41:28;;;;;;;7.70;3.80;;;19.90;57.60;;;;;;5012719;28;20496;-62
2022/04/19 09:44:09;;;;;;;7.93;4.43;;;19.90;59.60;;;;;;5012472;28;20038;-62
2022/04/19 09:46:36;;;;;;;7.65;4.53;;;20.00;59.30;;;;;;5012373;28;20022;-61
2022/04/19 09:49:02;;;;;;;9.25;4.90;;;19.60;60.00;;;;;;5018130;28;20033;-63
2022/04/19 09:51:33;;;;;;;9.52;4.53;;;19.50;61.10;;;;;;5029240;28;20030;-63
2022/04/19 09:53:59;;;;;;;12.60;4.75;;;19.30;61.80;;;;;;5012346;28;20084;-61
2022/04/19 09:56:37;;;;;;;11.65;4.55;;;19.30;62.80;;;;;;5012468;28;20030;-62
2022/04/19 09:59:03;;;;;;;6.25;4.22;;;19.50;61.90;;;;;;5012475;28;20029;-61
2022/04/19 10:09:38;;;;;;;7.10;4.32;;;18.90;64.30;;;;;;5011259;28;20485;-61
2022/04/19 10:12:06;;;;;;;9.05;4.63;;;19.10;64.20;;;;;;5011754;28;20026;-62
2022/04/19 10:14:33;;;;;;;8.95;5.10;;;19.10;64.40;;;;;;5010450;28;20029;-62
2022/04/19 10:17:00;;;;;;;10.63;4.97;;;19.20;63.10;;;;;;5009327;28;20026;-62
2022/04/19 10:19:27;;;;;;;9.98;5.70;;;19.40;62.70;;;;;;5008895;28;20108;-63
2022/04/19 10:21:54;;;;;;;15.57;5.15;;;19.80;61.30;;;;;;5016111;28;20025;-63
2022/04/19 10:24:20;;;;;;;8.65;5.03;;;20.00;59.90;;;;;;5028964;28;20033;-62
2022/04/19 10:26:51;;;;;;;8.15;4.78;;;20.10;58.60;;;;;;5028659;28;20516;-62
2022/04/19 10:29:21;;;;;;;7.70;5.05;;;20.20;58.40;;;;;;5028540;28;20121;-62
2022/04/19 10:32:01;;;;;;;10.00;4.95;;;20.20;59.30;;;;;;5028576;28;20496;-62
2022/04/19 10:34:38;;;;;;;13.70;5.05;;;20.00;60.10;;;;;;5031669;28;20065;-62
2022/04/19 10:37:15;;;;;;;9.32;4.72;;;20.30;60.30;;;;;;5031766;28;20030;-63
2022/04/19 10:39:46;;;;;;;8.02;4.63;;;21.60;57.40;;;;;;5031200;28;20079;-63
2022/04/19 10:42:38;;;;;;;11.35;5.47;;;22.80;51.60;;;;;;5029240;28;20025;-64
2022/04/19 10:45:12;;;;;;;9.30;5.57;;;24.50;44.10;;;;;;5021682;28;20603;-63
2022/04/19 10:47:53;;;;;;;14.27;5.88;;;23.90;39.30;;;;;;5008120;28;20504;-63
2022/04/19 10:50:33;;;;;;;8.88;5.00;;;22.70;43.30;;;;;;5013436;28;20025;-62
2022/04/19 10:53:12;;;;;;;8.85;5.03;;;21.20;45.80;;;;;;5026469;28;20476;-62
2022/04/19 10:55:38;;;;;;;12.40;5.00;;;20.00;49.60;;;;;;5031244;28;20037;-63
2022/04/19 10:58:16;;;;;;;12.90;5.57;;;19.40;52.30;;;;;;5031365;28;20333;-62
2022/04/19 11:00:45;;;;;;;12.45;4.95;;;19.00;57.60;;;;;;5031736;28;20160;-62
2022/04/19 11:03:29;;;;;;;10.02;4.25;;;19.40;64.50;;;;;;5030432;28;20444;-62
2022/04/19 11:05:57;;;;;;;9.40;4.07;;;20.90;56.00;;;;;;5028071;28;20060;-61
2022/04/19 11:08:37;;;;;;;8.05;4.32;;;24.00;45.50;;;;;;5028005;28;20052;-60
2022/04/19 11:11:04;;;;;;;7.82;4.00;;;26.90;33.60;;;;;;5030937;28;20029;-61
2022/04/19 11:13:38;;;;;;;7.63;3.97;;;28.10;25.60;;;;;;5028677;28;20091;-62
2022/04/19 11:16:13;;;;;;;6.95;4.00;;;26.10;22.60;;;;;;5027639;28;20448;-61
2022/04/19 11:18:39;;;;;;;7.00;3.80;;;24.60;24.30;;;;;;5027096;28;20364;-62
2022/04/19 11:21:12;;;;;;;8.38;4.40;;;23.10;30.70;;;;;;5027405;28;20516;-62
2022/04/19 11:23:49;;;;;;;6.60;3.67;;;21.60;33.20;;;;;;5007637;28;20053;-63
2022/04/19 11:26:26;;;;;;;8.73;4.97;;;21.60;37.70;;;;;;5013415;28;20045;-62
2022/04/19 11:29:10;;;;;;;7.82;4.70;;;21.40;36.20;;;;;;5027387;28;20035;-61
2022/04/19 11:31:45;;;;;;;6.47;4.32;;;21.40;40.40;;;;;;5027179;28;20503;-62
2022/04/19 11:34:20;;;;;;;7.55;4.35;;;22.80;35.10;;;;;;5027392;28;20025;-62
2022/04/19 11:36:45;;;;;;;6.63;4.35;;;21.60;36.40;;;;;;5027531;28;20068;-61
2022/04/19 11:47:47;;;;;;;12.23;5.00;;;18.60;47.90;;;;;;5027583;28;20036;-62
2022/04/19 11:50:33;;;;;;;8.45;5.15;;;18.20;51.30;;;;;;5027068;28;20033;-63
2022/04/19 11:53:00;;;;;;;8.25;4.85;;;18.20;53.20;;;;;;5010956;28;20116;-63
2022/04/19 11:55:27;;;;;;;10.95;4.63;;;18.70;55.40;;;;;;5007464;28;20034;-64
2022/04/19 11:58:08;;;;;;;7.90;4.40;;;20.40;47.20;;;;;;5007047;28;20091;-64
2022/04/19 12:00:35;;;;;;;10.27;5.00;;;22.30;40.10;;;;;;5007407;28;20037;-64
2022/04/19 12:03:04;;;;;;;10.68;5.10;;;23.80;32.20;;;;;;5006960;28;20038;-64
2022/04/19 12:05:30;;;;;;;6.88;4.75;;;22.40;31.10;;;;;;5006941;28;20057;-63
2022/04/19 12:07:57;;;;;;;10.20;4.80;;;21.80;33.10;;;;;;5006975;28;20030;-63
2022/04/19 12:10:23;;;;;;;10.73;4.93;;;20.60;34.90;;;;;;5015046;28;20107;-63
2022/04/19 12:12:50;;;;;;;9.68;4.95;;;19.70;40.00;;;;;;5026511;28;20100;-64
2022/04/19 12:15:41;;;;;;;7.97;4.70;;;19.00;42.60;;;;;;5026798;28;20536;-62
2022/04/19 12:18:07;;;;;;;11.77;5.55;;;18.50;46.60;;;;;;5026351;28;20033;-63
2022/04/19 12:20:43;;;;;;;7.18;5.00;;;17.90;48.80;;;;;;5027077;28;20038;-64
2022/04/19 12:23:19;;;;;;;9.18;5.13;;;17.30;52.50;;;;;;5026229;28;20045;-62
2022/04/19 12:26:01;;;;;;;12.05;6.40;;;17.20;56.20;;;;;;5028297;28;20399;-64
2022/04/19 12:28:47;;;;;;;12.27;6.45;;;16.60;61.40;;;;;;5030827;28;20056;-64
2022/04/19 12:31:33;;;;;;;15.68;6.55;;;16.50;65.70;;;;;;5030450;28;20441;-64
2022/04/19 12:33:59;;;;;;;12.73;6.45;;;17.30;65.00;;;;;;5030824;28;20040;-65
2022/04/19 12:36:26;;;;;;;12.88;6.75;;;20.30;49.50;;;;;;5030613;28;20181;-64
2022/04/19 12:39:04;;;;;;;13.82;6.63;;;23.50;38.70;;;;;;5030231;28;20408;-63
2022/04/19 12:41:43;;;;;;;9.50;6.25;;;26.30;28.70;;;;;;5030519;28;20559;-64
2022/04/19 12:44:10;;;;;;;15.18;6.53;;;28.20;24.50;;;;;;5030550;28;20108;-64
2022/04/19 12:46:40;;;;;;;10.00;5.65;;;29.00;20.50;;;;;;5030262;28;20161;-64
2022/04/19 12:49:06;;;;;;;10.73;5.88;;;31.10;18.70;;;;;;5030089;28;20144;-64
2022/04/19 12:51:35;;;;;;;10.77;5.93;;;30.70;16.80;;;;;;5030327;28;20083;-63
2022/04/19 12:54:08;;;;;;;8.98;6.38;;;30.10;16.40;;;;;;5030179;28;20041;-64
2022/04/19 12:56:34;;;;;;;11.73;6.50;;;30.50;17.20;;;;;;5030064;28;20558;-64
2022/04/19 12:59:00;;;;;;;9.30;5.78;;;31.20;17.00;;;;;;5030185;28;20061;-64
2022/04/19 13:01:26;;;;;;;12.05;6.53;;;31.90;16.40;;;;;;5029897;28;20022;-62
2022/04/19 13:03:52;;;;;;;8.77;6.00;;;30.50;15.40;;;;;;5030158;28;20183;-61
2022/04/19 13:14:31;;;;;;;14.05;7.85;;;23.40;24.60;;;;;;5029978;28;20109;-62
2022/04/19 13:16:57;;;;;;;12.00;7.68;;;21.30;29.80;;;;;;5029484;28;20104;-62
2022/04/19 13:19:23;;;;;;;14.50;7.18;;;20.30;34.50;;;;;;5029769;28;20083;-62
2022/04/19 13:21:48;;;;;;;12.13;6.30;;;19.90;37.30;;;;;;5029624;28;20080;-62
2022/04/19 13:24:14;;;;;;;7.15;3.50;;;19.70;40.60;;;;;;5026313;28;20037;-62
2022/04/19 13:26:40;;;;;;;4.25;2.10;;;19.30;36.30;;;;;;5029410;28;20064;-62
2022/04/19 13:29:06;;;;;;;3.85;2.70;;;18.60;34.80;;;;;;5029693;28;20099;-63
2022/04/19 13:31:31;;;;;;;3.67;2.28;;;18.00;39.90;;;;;;5029479;28;20018;-62
2022/04/19 13:33:57;;;;;;;3.85;2.30;;;17.60;45.10;;;;;;5029427;28;20053;-62
2022/04/19 13:36:24;;;;;;;7.47;2.90;;;17.40;49.00;;;;;;5029341;28;20076;-61
2022/04/19 13:38:50;;;;;;;5.57;2.63;;;17.20;50.60;;;;;;5028677;28;20503;-61
2022/04/19 13:41:15;;;;;;;8.73;2.80;;;17.20;52.40;;;;;;5028986;28;20126;-61
2022/04/19 13:43:41;;;;;;;5.38;2.55;;;17.20;53.90;;;;;;5029049;28;20030;-61
2022/04/19 13:46:07;;;;;;;4.82;2.63;;;17.10;53.80;;;;;;5028729;28;20044;-62